NCAR-RAP Real-Time Weather Data

Output produced by METARs form (14 October 2019  22:56 UTC)
found at http://weather.rap.ucar.edu/surface/
 
KSFO 142156Z 29014KT 10SM FEW011 19/09 A2995 RMK AO2 SLP142 T01890089
KSFO 142056Z 30011KT 10SM FEW200 19/09 A2996 RMK AO2 SLP145 T01890094 58009
KSFO 141956Z 05004KT 10SM FEW012 17/11 A2998 RMK AO2 SLP150 T01720111
KSFO 141856Z 05005KT 10SM FEW012 17/10 A2998 RMK AO2 SLP153 T01670100
KSFO 141756Z 04005KT 10SM FEW006 FEW012 16/10 A2999 RMK AO2 SLP154 T01610100 10161 20094 51012
KSFO 141656Z 00000KT 10SM FEW006 FEW012 14/09 A2998 RMK AO2 SLP153 T01440094
KSFO 141556Z 00000KT 10SM FEW006 FEW015 13/08 A2997 RMK AO2 SLP148 T01330083
KSFO 141544Z 00000KT 10SM FEW006 FEW015 13/08 A2997 RMK AO2 T01330083
KSFO 141456Z 21004KT 10SM FEW006 FEW015 10/07 A2995 RMK AO2 SLP142 T01000072 51015
KSFO 141356Z 21003KT 10SM FEW009 10/08 A2994 RMK AO2 SLP140 T01000078
KSFO 141323Z 29005KT 10SM FEW009 12/09 A2993 RMK AO2 T01220089
KSFO 141256Z 29007KT 10SM FEW009 10/08 A2993 RMK AO2 SLP133 T01000078
KSFO 141156Z 28006KT 10SM FEW010 11/07 A2991 RMK AO2 SLP127 T01060067 10128 20094 53000
KSFO 141056Z VRB03KT 10SM FEW009 11/06 A2990 RMK AO2 SLP125 T01060061
KSFO 140956Z 00000KT 10SM FEW009 12/07 A2991 RMK AO2 SLP128 T01220067
KSFO 140856Z 00000KT 10SM FEW009 12/09 A2991 RMK AO2 SLP127 T01220089 53002
KSFO 140756Z 28006KT 10SM FEW008 12/09 A2990 RMK AO2 SLP125 T01220094 402280111
KSFO 140656Z 27006KT 10SM FEW008 13/09 A2990 RMK AO2 SLP124 T01280089
KSFO 140556Z 29010KT 10SM FEW008 13/09 A2990 RMK AO2 SLP124 T01280094 10167 20128 53013
KSFO 140456Z 30007KT 10SM FEW008 13/10 A2988 RMK AO2 SLP117 T01330100
KSFO 140356Z 30007KT 10SM FEW008 13/11 A2987 RMK AO2 SLP115 T01280106
KSFO 140256Z 32010KT 10SM FEW010 13/09 A2986 RMK AO2 SLP111 T01330094 53007
KSFO 140156Z 28009KT 10SM FEW010 FEW200 13/07 A2985 RMK AO2 SLP108 T01330072
KSFO 140056Z 28014KT 10SM FEW008 FEW200 16/07 A2984 RMK AO2 SLP104 T01560072
KSFO 132356Z 29017KT 10SM FEW008 FEW200 16/09 A2984 RMK AO2 SLP104 T01610089 10222 20161 50001
KSFO 132256Z 29016KT 10SM FEW008 FEW200 17/08 A2984 RMK AO2 SLP105 T01670083
KSFO 132156Z 29015KT 10SM FEW008 FEW200 19/04 A2984 RMK AO2 SLP103 T01940039
KSFO 132056Z 33010KT 10SM FEW006 FEW200 22/02 A2984 RMK AO2 SLP104 T02220022 58014
KSFO 131956Z 32009KT 10SM FEW006 FEW200 19/06 A2986 RMK AO2 SLP112 T01940056
KSFO 131856Z 30013KT 10SM FEW006 FEW200 16/08 A2988 RMK AO2 SLP118 T01610078
KSFO 131756Z 03003KT 10SM FEW200 16/10 A2988 RMK AO2 SLP118 T01610100 10161 20111 51007
KSFO 131656Z 33004KT 10SM SCT200 16/07 A2987 RMK AO2 SLP116 T01560072
KSFO 131556Z 29010KT 10SM FEW005 SCT200 13/08 A2987 RMK AO2 SLP116 T01280083
KSFO 131456Z 29012KT 10SM FEW005 BKN200 12/08 A2986 RMK AO2 SLP111 T01170083 53001
KSFO 131452Z 29012KT 10SM FEW005 BKN200 13/08 A2986 RMK AO2
KSFO 131356Z 00000KT 10SM BKN200 12/08 A2985 RMK AO2 SLP108 T01170078
KSFO 131256Z 28005KT 10SM BKN220 12/08 A2985 RMK AO2 SLP109 T01170083
KSFO 131156Z 28005KT 10SM SCT200 12/08 A2985 RMK AO2 SLP108 T01170083 10167 20111 55004
KSFO 131056Z 28010KT 10SM SCT200 13/07 A2985 RMK AO2 SLP107 T01280067
KSFO 130956Z 27003KT 10SM CLR 12/02 A2985 RMK AO2 SLP109 T01220022
KSFO 130856Z 28007KT 10SM FEW170 13/09 A2986 RMK AO2 SLP112 T01280089 56001
KSFO 130756Z 29007KT 10SM FEW170 13/09 A2986 RMK AO2 SLP112 T01280089 402390111
KSFO 130656Z 28006KT 10SM BKN200 15/02 A2986 RMK AO2 SLP111 T01500022
KSFO 130556Z 16004KT 10SM OVC200 16/02 A2987 RMK AO2 SLP113 T01610017 10217 20161 51005
KSFO 130456Z 29008KT 10SM BKN200 17/02 A2986 RMK AO2 SLP112 T01670022
KSFO 130356Z 28014KT 10SM BKN200 18/M01 A2986 RMK AO2 SLP111 T01781011
KSFO 130256Z 28014KT 10SM SCT200 17/00 A2985 RMK AO2 SLP108 T01670000 53003
KSFO 130156Z 29014KT 10SM SCT200 18/00 A2984 RMK AO2 SLP103 T01830000
KSFO 130056Z 30012KT 10SM BKN200 19/03 A2983 RMK AO2 SLP103 T01940028
KSFO 122356Z 30011KT 10SM BKN200 21/06 A2984 RMK AO2 WSHFT 2251 SLP105 T02110056 10239 20178 56015
KSFO 122307Z 29013KT 10SM BKN200 23/06 A2985 RMK AO2 WSHFT 2251 T02280061